createdAt,value
2022-09-12T00:00:25.498Z,86464.00
2022-09-12T00:02:56.501Z,86459.20
2022-09-12T00:05:26.055Z,86461.60
2022-09-12T00:07:56.318Z,86467.00
2022-09-12T00:10:25.460Z,86467.00
2022-09-12T00:12:55.085Z,86466.20
2022-09-12T00:15:24.383Z,86470.00
2022-09-12T00:17:53.845Z,86471.80
2022-09-12T00:20:23.211Z,86474.40
2022-09-12T00:22:52.368Z,86467.00
2022-09-12T00:25:21.454Z,86475.40
2022-09-12T00:27:50.697Z,86474.00
2022-09-12T00:30:20.279Z,86473.60
2022-09-12T00:32:50.405Z,86476.60
2022-09-12T00:35:19.708Z,86470.80
2022-09-12T00:37:48.732Z,86474.20
2022-09-12T00:40:18.708Z,86469.80
2022-09-12T00:42:50.861Z,86468.60
2022-09-12T00:45:30.722Z,86475.20
2022-09-12T00:48:05.691Z,86479.60
2022-09-12T00:50:35.499Z,86479.40
2022-09-12T00:53:10.170Z,86480.00
2022-09-12T00:55:50.206Z,86486.60
2022-09-12T00:58:35.784Z,86483.20
2022-09-12T01:01:05.288Z,86488.20
2022-09-12T01:03:34.870Z,86491.00
2022-09-12T01:06:21.022Z,86493.00
2022-09-12T01:08:52.360Z,86494.60
2022-09-12T01:11:23.569Z,86499.60
2022-09-12T01:13:53.389Z,86501.40
2022-09-12T01:16:22.820Z,86499.40
2022-09-12T01:19:06.256Z,86502.40
2022-09-12T01:21:59.357Z,86504.20
2022-09-12T01:24:48.022Z,86506.40
2022-09-12T01:27:44.440Z,86513.60
2022-09-12T01:31:07.977Z,86515.40
2022-09-12T01:33:52.060Z,86519.60
2022-09-12T01:37:18.237Z,86524.60
2022-09-12T01:40:10.139Z,86530.40
2022-09-12T01:43:04.369Z,86531.80
2022-09-12T01:46:04.650Z,86534.60
2022-09-12T01:48:46.493Z,86529.20
2022-09-12T01:51:42.804Z,86534.00
2022-09-12T01:54:52.169Z,86541.60
2022-09-12T01:57:34.739Z,86534.00
2022-09-12T02:00:12.993Z,86539.00
2022-09-12T02:03:16.685Z,86541.00
2022-09-12T02:06:14.406Z,86545.80
2022-09-12T02:08:57.593Z,86542.60
2022-09-12T02:11:27.378Z,86547.60
2022-09-12T02:14:24.350Z,86546.60
2022-09-12T02:17:18.932Z,86547.20
2022-09-12T02:20:44.366Z,86546.80
2022-09-12T02:23:27.987Z,86554.60
2022-09-12T02:26:04.709Z,86555.40
2022-09-12T02:28:39.578Z,86555.20
2022-09-12T02:31:23.614Z,86559.00
2022-09-12T02:34:41.698Z,86558.80
2022-09-12T02:37:57.955Z,86564.60
2022-09-12T02:40:28.505Z,86563.60
2022-09-12T02:42:58.343Z,86564.60
2022-09-12T02:45:28.849Z,86570.40
2022-09-12T02:48:36.891Z,86572.80
2022-09-12T02:51:06.351Z,86578.00
2022-09-12T02:53:37.064Z,86584.40
2022-09-12T02:56:13.564Z,86578.40
2022-09-12T02:58:43.798Z,86575.80
2022-09-12T03:01:41.140Z,86569.20
2022-09-12T03:05:05.212Z,86572.00
2022-09-12T03:08:12.269Z,86574.00
2022-09-12T03:11:11.605Z,86576.40
2022-09-12T03:14:03.116Z,86583.60
2022-09-12T03:16:59.638Z,86588.00
2022-09-12T03:20:10.019Z,86580.60
2022-09-12T03:23:11.891Z,86580.40
2022-09-12T03:25:52.021Z,86582.60
2022-09-12T03:28:24.759Z,86585.00
2022-09-12T03:30:55.750Z,86588.20
2022-09-12T03:33:27.403Z,86588.40
2022-09-12T03:35:58.048Z,86588.60
2022-09-12T03:38:27.130Z,86597.20
2022-09-12T03:40:56.552Z,86591.80
2022-09-12T03:43:25.806Z,86601.40
2022-09-12T03:45:55.017Z,86601.20
2022-09-12T03:48:24.228Z,86609.40
2022-09-12T03:50:53.589Z,86609.40
2022-09-12T03:53:22.785Z,86609.60
2022-09-12T03:55:51.985Z,86618.60
2022-09-12T03:58:22.313Z,86613.20
2022-09-12T04:00:51.844Z,86617.40
2022-09-12T04:03:21.247Z,86611.80
2022-09-12T04:05:50.478Z,86613.00
2022-09-12T04:08:19.813Z,86617.80
2022-09-12T04:10:49.200Z,86616.40
2022-09-12T04:13:18.613Z,86612.40
2022-09-12T04:15:59.628Z,86622.60
2022-09-12T04:18:30.198Z,86621.80
2022-09-12T04:21:00.107Z,86626.40
2022-09-12T04:23:29.625Z,86623.20
2022-09-12T04:26:01.955Z,86617.80
2022-09-12T04:28:31.766Z,86617.20
2022-09-12T04:31:08.422Z,86612.60
2022-09-12T04:33:38.590Z,86612.20
2022-09-12T04:36:11.416Z,86622.00
2022-09-12T04:38:40.596Z,86621.20
2022-09-12T04:41:19.180Z,86624.20
2022-09-12T04:43:52.901Z,86630.80
2022-09-12T04:46:22.847Z,86637.40
2022-09-12T04:48:56.698Z,86635.80
2022-09-12T04:51:34.791Z,86639.80
2022-09-12T04:54:13.270Z,86643.80
2022-09-12T04:56:45.217Z,86649.80
2022-09-12T04:59:17.513Z,86653.00
2022-09-12T05:01:46.909Z,86650.40
2022-09-12T05:04:16.303Z,86653.00
2022-09-12T05:06:48.030Z,86652.40
2022-09-12T05:09:17.580Z,86657.40
2022-09-12T05:12:03.862Z,86664.40
2022-09-12T05:14:35.234Z,86671.60
2022-09-12T05:17:07.005Z,86672.00
2022-09-12T05:19:36.513Z,86672.60
2022-09-12T05:22:07.791Z,86671.00
2022-09-12T05:24:39.045Z,86672.40
2022-09-12T05:27:08.546Z,86674.60
2022-09-12T05:29:37.995Z,86675.00
2022-09-12T05:32:10.771Z,86673.20
2022-09-12T05:34:40.784Z,86675.40
2022-09-12T05:37:10.930Z,86679.80
2022-09-12T05:39:40.243Z,86682.00
2022-09-12T05:42:10.192Z,86688.20
2022-09-12T05:44:39.436Z,86693.80
2022-09-12T05:47:08.942Z,86697.20
2022-09-12T05:49:39.071Z,86701.20
2022-09-12T05:52:08.481Z,86707.40
2022-09-12T05:54:37.852Z,86703.40
2022-09-12T05:57:07.458Z,86704.20
2022-09-12T05:59:36.951Z,86709.40
2022-09-12T06:02:06.311Z,86710.80
2022-09-12T06:04:35.618Z,86712.80
2022-09-12T06:07:05.786Z,86718.20
2022-09-12T06:09:35.135Z,86712.80
2022-09-12T06:12:04.995Z,86709.20
2022-09-12T06:14:34.436Z,86713.20
2022-09-12T06:17:03.589Z,86717.20
2022-09-12T06:19:33.112Z,86717.20
2022-09-12T06:22:02.712Z,86719.80
2022-09-12T06:24:31.972Z,86716.20
2022-09-12T06:27:01.047Z,86717.20
2022-09-12T06:29:30.874Z,86718.40
2022-09-12T06:32:00.415Z,86723.80
2022-09-12T06:34:29.479Z,86722.00
2022-09-12T06:36:59.198Z,86724.40
2022-09-12T06:39:28.563Z,86731.80
2022-09-12T06:41:58.034Z,86732.00
2022-09-12T06:44:27.149Z,86732.80
2022-09-12T06:46:56.530Z,86739.60
2022-09-12T06:49:25.905Z,86737.60
2022-09-12T06:51:55.175Z,86740.00
2022-09-12T06:54:24.766Z,86741.20
2022-09-12T06:56:57.122Z,86741.80
2022-09-12T06:59:26.870Z,86744.00
2022-09-12T07:01:56.079Z,86746.20
2022-09-12T07:04:25.364Z,86750.80
2022-09-12T07:06:54.509Z,86750.20
2022-09-12T07:09:24.113Z,86752.80
2022-09-12T07:11:53.449Z,86750.40
2022-09-12T07:14:22.858Z,86752.40
2022-09-12T07:16:52.009Z,86753.40
2022-09-12T07:19:21.266Z,86754.80
2022-09-12T07:21:54.206Z,86747.80
2022-09-12T07:24:25.901Z,86749.20
2022-09-12T07:26:55.125Z,86747.40
2022-09-12T07:29:39.546Z,86748.60
2022-09-12T07:32:09.183Z,86745.40
2022-09-12T07:34:38.344Z,86744.80
2022-09-12T07:37:07.599Z,86752.00
2022-09-12T07:39:36.759Z,86753.40
2022-09-12T07:42:06.181Z,86759.20
2022-09-12T07:44:35.336Z,86762.40
2022-09-12T07:47:04.786Z,86760.40
2022-09-12T07:49:34.264Z,86758.40
2022-09-12T07:52:04.014Z,86760.80
2022-09-12T07:54:34.383Z,86763.80
2022-09-12T07:57:03.350Z,86765.80
2022-09-12T07:59:51.374Z,86764.00
2022-09-12T08:02:22.391Z,86767.60
2022-09-12T08:04:52.463Z,86767.60
2022-09-12T08:07:21.702Z,86773.40
2022-09-12T08:09:51.053Z,86773.00
2022-09-12T08:12:21.421Z,86778.80
2022-09-12T08:14:50.673Z,86778.40
2022-09-12T08:17:19.880Z,86778.60
2022-09-12T08:19:49.374Z,86777.80
2022-09-12T08:22:22.913Z,86774.80
2022-09-12T08:24:52.613Z,86784.20
2022-09-12T08:27:21.760Z,86786.80
2022-09-12T08:29:50.770Z,86784.00
2022-09-12T08:32:20.152Z,86782.20
2022-09-12T08:34:49.403Z,86783.60
2022-09-12T08:37:18.537Z,86784.00
2022-09-12T08:39:47.793Z,86789.00
2022-09-12T08:42:52.179Z,86794.00
2022-09-12T08:45:47.628Z,86797.80
2022-09-12T08:48:16.979Z,86798.20
2022-09-12T08:50:49.993Z,86800.20
2022-09-12T08:53:26.865Z,86803.00
2022-09-12T08:56:01.186Z,86804.40
2022-09-12T08:58:32.541Z,86810.60
2022-09-12T09:01:10.957Z,86807.20
2022-09-12T09:04:14.145Z,86809.00
2022-09-12T09:07:08.455Z,86802.00
2022-09-12T09:10:02.968Z,86805.00
2022-09-12T09:13:01.989Z,86809.20
2022-09-12T09:16:31.808Z,86807.20
2022-09-12T09:19:09.638Z,86813.20
2022-09-12T09:22:17.330Z,86814.60
2022-09-12T09:25:02.338Z,86807.60
2022-09-12T09:27:50.559Z,86816.60
2022-09-12T09:30:23.601Z,86814.00
2022-09-12T09:33:04.440Z,86819.00
2022-09-12T09:36:00.166Z,86823.40
2022-09-12T09:39:03.986Z,86818.20
2022-09-12T09:41:39.304Z,86820.40
2022-09-12T09:46:37.652Z,86828.60
2022-09-12T09:49:09.249Z,86832.60
2022-09-12T09:51:41.906Z,86827.60
2022-09-12T09:54:22.804Z,86834.00
2022-09-12T09:56:52.445Z,86834.40
2022-09-12T09:59:35.594Z,86837.60
2022-09-12T10:02:24.169Z,86836.60
2022-09-12T10:05:00.758Z,86834.80
2022-09-12T10:07:30.137Z,86836.20
2022-09-12T10:10:24.214Z,86836.60
2022-09-12T10:13:11.186Z,86840.40
2022-09-12T10:15:40.441Z,86840.60
2022-09-12T10:18:09.805Z,86837.80
2022-09-12T10:20:45.772Z,86848.40
2022-09-12T10:23:38.900Z,86846.60
2022-09-12T10:26:18.131Z,86847.40
2022-09-12T10:28:56.308Z,86852.00
2022-09-12T10:31:52.649Z,86855.60
2022-09-12T10:34:46.916Z,86854.00
2022-09-12T10:37:40.558Z,86856.60
2022-09-12T10:40:27.500Z,86856.60
2022-09-12T10:43:04.279Z,86859.20
2022-09-12T10:45:37.293Z,86859.80
2022-09-12T10:48:33.302Z,86860.00
2022-09-12T10:51:04.008Z,86867.60
2022-09-12T10:53:46.727Z,86868.20
2022-09-12T10:56:25.597Z,86876.00
2022-09-12T10:59:21.472Z,86874.40
2022-09-12T11:02:32.430Z,86881.20
2022-09-12T11:05:37.700Z,86890.20
2022-09-12T11:08:46.113Z,86891.20
2022-09-12T11:11:53.474Z,86895.60
2022-09-12T11:14:40.494Z,86907.80
2022-09-12T11:17:30.522Z,86917.20
2022-09-12T11:20:13.343Z,86919.60
2022-09-12T11:23:09.998Z,86923.80
2022-09-12T11:26:07.722Z,86924.40
2022-09-12T11:29:09.365Z,86927.20
2022-09-12T11:32:22.271Z,86929.20
2022-09-12T11:35:25.742Z,86935.20
2022-09-12T11:38:13.664Z,86937.80
2022-09-12T11:41:33.015Z,86939.60
2022-09-12T11:44:27.100Z,86937.80
2022-09-12T11:46:56.760Z,86934.40
2022-09-12T11:49:39.870Z,86929.40
2022-09-12T11:52:24.887Z,86925.00
2022-09-12T11:55:18.154Z,86919.20
2022-09-12T11:57:59.674Z,86917.80
2022-09-12T12:00:43.262Z,86908.60
2022-09-12T12:03:38.656Z,86910.00
2022-09-12T12:06:15.888Z,86910.20
2022-09-12T12:08:48.342Z,86913.20
2022-09-12T12:11:54.647Z,86911.00
2022-09-12T12:14:51.232Z,86914.40
2022-09-12T12:17:26.653Z,86913.60
2022-09-12T12:20:08.353Z,86911.00
2022-09-12T12:22:38.325Z,86912.80
2022-09-12T12:25:40.225Z,86910.80
2022-09-12T12:28:10.195Z,86909.00
2022-09-12T12:30:42.154Z,86905.60
2022-09-12T12:33:19.241Z,86912.80
2022-09-12T12:36:11.614Z,86908.00
2022-09-12T12:38:42.266Z,86904.60
2022-09-12T12:41:20.373Z,86904.80
2022-09-12T12:43:55.532Z,86905.20
2022-09-12T12:46:31.515Z,86901.80
2022-09-12T12:49:29.492Z,86903.20
2022-09-12T12:52:04.770Z,86904.20
2022-09-12T12:54:54.640Z,86903.60
2022-09-12T12:57:51.640Z,86900.80
2022-09-12T13:00:27.191Z,86905.00
2022-09-12T13:03:08.101Z,86910.60
2022-09-12T13:05:55.503Z,86915.20
2022-09-12T13:08:36.476Z,86917.20
2022-09-12T13:11:28.365Z,86918.00
2022-09-12T13:14:50.237Z,86917.40
2022-09-12T13:17:28.047Z,86922.60
2022-09-12T13:20:30.855Z,86918.60
2022-09-12T13:23:04.168Z,86921.60
2022-09-12T13:25:38.714Z,86920.80
2022-09-12T13:28:12.385Z,86921.40
2022-09-12T13:30:57.984Z,86920.60
2022-09-12T13:34:09.006Z,86922.40
2022-09-12T13:37:27.885Z,86926.60
2022-09-12T13:40:37.366Z,86927.60
2022-09-12T13:43:42.455Z,86932.00
2022-09-12T13:46:17.584Z,86930.20
2022-09-12T13:48:47.576Z,86933.40
2022-09-12T13:51:31.139Z,86935.40
2022-09-12T13:54:06.635Z,86936.60
2022-09-12T13:56:37.828Z,86934.80
2022-09-12T13:59:14.439Z,86937.60
2022-09-12T14:01:49.516Z,86939.00
2022-09-12T14:04:45.237Z,86940.20
2022-09-12T14:07:25.336Z,86941.00
2022-09-12T14:10:01.517Z,86944.20
2022-09-12T14:12:44.721Z,86943.20
2022-09-12T14:15:25.641Z,86945.40
2022-09-12T14:18:04.351Z,86947.60
2022-09-12T14:20:39.770Z,86943.20
2022-09-12T14:23:22.597Z,86941.60
2022-09-12T14:25:53.141Z,86939.60
2022-09-12T14:28:23.811Z,86939.80
2022-09-12T14:31:25.088Z,86948.80
2022-09-12T14:34:12.497Z,86940.00
2022-09-12T14:36:58.254Z,86940.80
2022-09-12T14:39:45.286Z,86944.60
2022-09-12T14:42:21.739Z,86943.40
2022-09-12T14:45:22.075Z,86946.00
2022-09-12T14:47:54.403Z,86946.20
2022-09-12T14:50:36.347Z,86949.80
2022-09-12T14:53:19.747Z,86948.00
2022-09-12T14:56:11.746Z,86950.20
2022-09-12T14:58:43.055Z,86952.00
2022-09-12T15:01:15.468Z,86950.80
2022-09-12T15:03:52.531Z,86951.00
2022-09-12T15:06:42.156Z,86945.20
2022-09-12T15:09:15.606Z,86948.00
2022-09-12T15:11:45.524Z,86947.80
2022-09-12T15:14:18.717Z,86947.60
2022-09-12T15:16:47.899Z,86950.00
2022-09-12T15:19:17.222Z,86953.20
2022-09-12T15:21:46.515Z,86944.60
2022-09-12T15:24:16.384Z,86948.20
2022-09-12T15:26:45.474Z,86948.40
2022-09-12T15:29:15.022Z,86947.80
2022-09-12T15:31:48.809Z,86944.40
2022-09-12T15:34:18.283Z,86951.20
2022-09-12T15:36:47.672Z,86953.80
2022-09-12T15:39:17.231Z,86949.40
2022-09-12T15:41:46.617Z,86947.20
2022-09-12T15:44:15.941Z,86942.00
2022-09-12T15:46:46.365Z,86942.00
2022-09-12T15:49:16.270Z,86940.20
2022-09-12T15:51:45.439Z,86931.60
2022-09-12T15:54:18.422Z,86931.60
2022-09-12T15:56:47.944Z,86932.80
2022-09-12T15:59:18.175Z,86930.80
2022-09-12T16:01:48.136Z,86932.40
2022-09-12T16:04:30.080Z,86929.80
2022-09-12T16:06:59.631Z,86924.00
2022-09-12T16:09:29.267Z,86916.60
2022-09-12T16:11:58.606Z,86914.20
2022-09-12T16:14:27.682Z,86909.40
2022-09-12T16:16:57.944Z,86916.00
2022-09-12T16:19:28.123Z,86913.00
2022-09-12T16:21:57.545Z,86903.60
2022-09-12T16:24:27.134Z,86895.60
2022-09-12T16:27:00.912Z,86897.20
2022-09-12T16:29:31.450Z,86892.20
2022-09-12T16:32:00.694Z,86887.20
2022-09-12T16:34:29.867Z,86884.40
2022-09-12T16:36:59.044Z,86888.00
2022-09-12T16:39:28.642Z,86888.20
2022-09-12T16:41:57.971Z,86883.80
2022-09-12T16:44:27.249Z,86886.40
2022-09-12T16:46:56.802Z,86885.80
2022-09-12T16:49:26.180Z,86886.00
2022-09-12T16:51:55.529Z,86883.40
2022-09-12T16:54:25.179Z,86880.00
2022-09-12T16:56:54.656Z,86882.00
2022-09-12T16:59:23.765Z,86881.40
2022-09-12T17:01:53.297Z,86875.00
2022-09-12T17:04:23.710Z,86873.80
2022-09-12T17:06:53.272Z,86873.40
2022-09-12T17:09:23.114Z,86869.20
2022-09-12T17:11:53.468Z,86873.20
2022-09-12T17:14:22.907Z,86875.20
2022-09-12T17:16:53.342Z,86872.20
2022-09-12T17:19:30.879Z,86872.00
2022-09-12T17:22:00.689Z,86875.20
2022-09-12T17:24:30.314Z,86871.60
2022-09-12T17:27:00.395Z,86871.80
2022-09-12T17:29:29.743Z,86862.80
2022-09-12T17:31:58.926Z,86860.80
2022-09-12T17:34:28.186Z,86858.40
2022-09-12T17:36:57.380Z,86852.80
2022-09-12T17:39:26.553Z,86853.60
2022-09-12T17:41:58.503Z,86856.40
2022-09-12T17:44:30.222Z,86849.60
2022-09-12T17:46:59.488Z,86852.00
2022-09-12T17:49:29.347Z,86844.40
2022-09-12T17:51:58.918Z,86841.80
2022-09-12T17:54:28.888Z,86845.20
2022-09-12T17:56:58.359Z,86839.00
2022-09-12T17:59:28.116Z,86842.20
2022-09-12T18:02:17.064Z,86835.60
2022-09-12T18:04:48.540Z,86837.00
2022-09-12T18:07:20.315Z,86842.40
2022-09-12T18:09:50.532Z,86840.20
2022-09-12T18:12:21.063Z,86840.60
2022-09-12T18:14:50.181Z,86837.60
2022-09-12T18:17:19.678Z,86827.80
2022-09-12T18:19:53.501Z,86823.40
2022-09-12T18:22:23.034Z,86817.00
2022-09-12T18:24:52.220Z,86812.20
2022-09-12T18:27:21.399Z,86812.20
2022-09-12T18:30:10.296Z,86810.40
2022-09-12T18:32:40.023Z,86806.60
2022-09-12T18:35:10.127Z,86801.40
2022-09-12T18:37:41.501Z,86798.20
2022-09-12T18:40:11.435Z,86798.20
2022-09-12T18:42:40.840Z,86797.80
2022-09-12T18:45:10.447Z,86801.00
2022-09-12T18:47:39.486Z,86800.60
2022-09-12T18:50:09.194Z,86801.60
2022-09-12T18:52:38.559Z,86797.80
2022-09-12T18:55:08.410Z,86795.40
2022-09-12T18:57:37.536Z,86791.80
2022-09-12T19:00:12.262Z,86792.00
2022-09-12T19:02:41.735Z,86786.40
2022-09-12T19:05:13.443Z,86782.80
2022-09-12T19:07:42.938Z,86779.20
2022-09-12T19:10:13.142Z,86779.60
2022-09-12T19:12:42.453Z,86772.00
2022-09-12T19:15:11.941Z,86768.80
2022-09-12T19:17:41.276Z,86769.40
2022-09-12T19:20:11.159Z,86762.00
2022-09-12T19:22:40.496Z,86758.20
2022-09-12T19:25:10.221Z,86755.00
2022-09-12T19:27:39.567Z,86754.60
2022-09-12T19:30:09.326Z,86753.60
2022-09-12T19:32:38.643Z,86756.20
2022-09-12T19:35:08.345Z,86751.20
2022-09-12T19:37:37.693Z,86747.40
2022-09-12T19:40:08.762Z,86748.40
2022-09-12T19:42:37.919Z,86734.60
2022-09-12T19:45:07.891Z,86736.00
2022-09-12T19:47:40.045Z,86732.00
2022-09-12T19:50:10.369Z,86729.80
2022-09-12T19:52:39.515Z,86731.00
2022-09-12T19:55:10.152Z,86730.20
2022-09-12T19:57:39.306Z,86722.40
2022-09-12T20:00:10.362Z,86718.60
2022-09-12T20:02:39.697Z,86716.20
2022-09-12T20:05:09.425Z,86709.40
2022-09-12T20:07:39.399Z,86713.60
2022-09-12T20:10:09.177Z,86708.80
2022-09-12T20:12:38.310Z,86708.40
2022-09-12T20:15:09.424Z,86698.80
2022-09-12T20:17:38.883Z,86699.60
2022-09-12T20:20:12.284Z,86694.60
2022-09-12T20:22:41.712Z,86689.80
2022-09-12T20:25:11.044Z,86684.60
2022-09-12T20:27:40.159Z,86677.20
2022-09-12T20:30:10.630Z,86677.80
2022-09-12T20:32:39.852Z,86674.80
2022-09-12T20:35:10.567Z,86667.20
2022-09-12T20:37:41.586Z,86666.40
2022-09-12T20:40:12.539Z,86662.40
2022-09-12T20:42:41.931Z,86656.80
2022-09-12T20:45:11.436Z,86655.00
2022-09-12T20:47:40.573Z,86655.40
2022-09-12T20:50:10.520Z,86646.00
2022-09-12T20:52:39.926Z,86642.80
2022-09-12T20:55:09.792Z,86633.60
2022-09-12T20:57:39.495Z,86631.00
2022-09-12T21:00:11.234Z,86634.60
2022-09-12T21:02:40.455Z,86633.40
2022-09-12T21:05:10.201Z,86632.60
2022-09-12T21:07:39.509Z,86625.60
2022-09-12T21:10:09.151Z,86622.40
2022-09-12T21:12:38.654Z,86621.80
2022-09-12T21:15:09.185Z,86617.00
2022-09-12T21:17:38.361Z,86612.80
2022-09-12T21:20:11.237Z,86610.60
2022-09-12T21:22:40.886Z,86614.60
2022-09-12T21:25:14.885Z,86614.00
2022-09-12T21:27:44.321Z,86611.60
2022-09-12T21:30:15.246Z,86608.60
2022-09-12T21:32:44.625Z,86603.00
2022-09-12T21:35:13.905Z,86595.60
2022-09-12T21:37:43.388Z,86596.60
2022-09-12T21:40:13.127Z,86597.00
2022-09-12T21:42:42.967Z,86600.00
2022-09-12T21:45:13.111Z,86599.60
2022-09-12T21:47:42.464Z,86595.00
2022-09-12T21:50:12.538Z,86587.60
2022-09-12T21:52:41.702Z,86588.60
2022-09-12T21:55:11.814Z,86586.60
2022-09-12T21:57:41.251Z,86584.60
2022-09-12T22:00:19.037Z,86586.60
2022-09-12T22:02:50.680Z,86583.20
2022-09-12T22:05:25.599Z,86586.20
2022-09-12T22:07:54.911Z,86584.40
2022-09-12T22:10:24.287Z,86582.40
2022-09-12T22:12:53.612Z,86576.60
2022-09-12T22:15:39.941Z,86571.40
2022-09-12T22:18:09.988Z,86573.00
2022-09-12T22:20:39.192Z,86572.80
2022-09-12T22:23:29.075Z,86575.60
2022-09-12T22:25:59.037Z,86569.40
2022-09-12T22:28:28.434Z,86573.40
2022-09-12T22:30:57.928Z,86568.00
2022-09-12T22:33:27.500Z,86568.80
2022-09-12T22:35:57.102Z,86570.20
2022-09-12T22:38:27.260Z,86574.20
2022-09-12T22:40:56.504Z,86575.20
2022-09-12T22:43:26.126Z,86576.20
2022-09-12T22:45:56.449Z,86569.80
2022-09-12T22:48:26.049Z,86566.20
2022-09-12T22:50:56.411Z,86566.40
2022-09-12T22:53:25.760Z,86565.60
2022-09-12T22:55:55.120Z,86561.60
2022-09-12T22:58:24.481Z,86554.20
2022-09-12T23:00:56.765Z,86553.60
2022-09-12T23:03:25.949Z,86551.60
2022-09-12T23:05:55.202Z,86555.80
2022-09-12T23:08:24.483Z,86553.00
2022-09-12T23:11:00.845Z,86554.60
2022-09-12T23:13:30.497Z,86551.60
2022-09-12T23:16:06.309Z,86545.80
2022-09-12T23:18:39.011Z,86544.80
2022-09-12T23:21:12.306Z,86543.20
2022-09-12T23:23:41.671Z,86550.20
2022-09-12T23:26:25.477Z,86543.00
2022-09-12T23:28:58.778Z,86538.20
2022-09-12T23:31:31.382Z,86538.20
2022-09-12T23:34:03.714Z,86535.20
2022-09-12T23:36:33.612Z,86536.80
2022-09-12T23:39:03.402Z,86528.00
2022-09-12T23:41:32.848Z,86528.20
2022-09-12T23:44:02.264Z,86529.60
2022-09-12T23:46:31.614Z,86525.80
2022-09-12T23:49:00.823Z,86524.60
2022-09-12T23:51:30.139Z,86521.40
2022-09-12T23:53:59.615Z,86518.20
2022-09-12T23:56:29.216Z,86510.20
2022-09-12T23:58:58.424Z,86503.60
